createdAt,value
2018-05-07T00:02:12.994Z,98513.78
2018-05-07T00:04:39.373Z,98504.64
2018-05-07T00:07:05.661Z,98508.00
2018-05-07T00:09:31.947Z,98506.73
2018-05-07T00:11:58.223Z,98503.55
2018-05-07T00:14:24.478Z,98500.61
2018-05-07T00:16:50.792Z,98501.45
2018-05-07T00:19:17.036Z,98498.66
2018-05-07T00:21:43.286Z,98502.56
2018-05-07T00:24:09.687Z,98497.94
2018-05-07T00:26:35.964Z,98498.15
2018-05-07T00:29:02.178Z,98495.19
2018-05-07T00:31:28.398Z,98491.72
2018-05-07T00:33:54.615Z,98497.61
2018-05-07T00:36:21.066Z,98499.84
2018-05-07T00:38:47.278Z,98496.94
2018-05-07T00:41:13.502Z,98495.63
2018-05-07T00:43:39.850Z,98496.47
2018-05-07T00:46:06.093Z,98494.72
2018-05-07T00:48:32.314Z,98499.12
2018-05-07T00:50:58.555Z,98497.55
2018-05-07T00:53:24.766Z,98493.84
2018-05-07T00:55:51.122Z,98495.00
2018-05-07T00:58:17.402Z,98496.48
2018-05-07T01:00:43.618Z,98497.84
2018-05-07T01:03:09.894Z,98490.05
2018-05-07T01:05:36.171Z,98493.94
2018-05-07T01:08:02.419Z,98489.12
2018-05-07T01:10:28.655Z,98492.66
2018-05-07T01:12:54.915Z,98491.98
2018-05-07T01:15:21.229Z,98490.73
2018-05-07T01:17:47.463Z,98491.11
2018-05-07T01:20:13.711Z,98489.93
2018-05-07T01:22:39.934Z,98488.39
2018-05-07T01:25:06.179Z,98489.93
2018-05-07T01:27:32.505Z,98492.41
2018-05-07T01:29:58.797Z,98487.38
2018-05-07T01:32:25.010Z,98489.05
2018-05-07T01:34:51.255Z,98487.09
2018-05-07T01:37:18.142Z,98485.02
2018-05-07T01:39:44.367Z,98490.02
2018-05-07T01:42:10.622Z,98488.91
2018-05-07T01:44:36.845Z,98487.95
2018-05-07T01:47:03.107Z,98484.63
2018-05-07T01:49:29.344Z,98483.42
2018-05-07T01:51:55.563Z,98481.97
2018-05-07T01:54:21.832Z,98484.09
2018-05-07T01:56:48.046Z,98481.72
2018-05-07T01:59:14.262Z,98488.88
2018-05-07T02:01:40.510Z,98490.03
2018-05-07T02:04:06.750Z,98488.80
2018-05-07T02:06:33.014Z,98491.22
2018-05-07T02:08:59.229Z,98489.09
2018-05-07T02:11:25.478Z,98483.47
2018-05-07T02:13:51.715Z,98484.36
2018-05-07T02:16:17.965Z,98482.31
2018-05-07T02:18:44.186Z,98480.73
2018-05-07T02:21:10.409Z,98479.73
2018-05-07T02:23:36.658Z,98473.41
2018-05-07T02:26:02.912Z,98475.14
2018-05-07T02:28:29.170Z,98477.50
2018-05-07T02:30:55.391Z,98474.67
2018-05-07T02:33:21.635Z,98478.73
2018-05-07T02:35:47.859Z,98476.72
2018-05-07T02:38:14.110Z,98474.91
2018-05-07T02:40:40.324Z,98475.68
2018-05-07T02:43:06.542Z,98481.12
2018-05-07T02:45:32.787Z,98482.08
2018-05-07T02:47:59.088Z,98485.81
2018-05-07T02:50:25.326Z,98482.98
2018-05-07T02:52:51.551Z,98480.93
2018-05-07T02:55:17.801Z,98483.86
2018-05-07T02:57:44.009Z,98478.48
2018-05-07T03:00:10.273Z,98475.11
2018-05-07T03:02:36.504Z,98476.76
2018-05-07T03:05:02.767Z,98471.08
2018-05-07T03:07:29.023Z,98478.89
2018-05-07T03:09:55.262Z,98474.23
2018-05-07T03:12:21.515Z,98482.43
2018-05-07T03:14:47.762Z,98480.84
2018-05-07T03:17:14.031Z,98479.06
2018-05-07T03:19:40.262Z,98483.61
2018-05-07T03:22:06.530Z,98476.20
2018-05-07T03:24:32.799Z,98469.19
2018-05-07T03:26:59.018Z,98473.30
2018-05-07T03:29:25.262Z,98474.61
2018-05-07T03:31:51.494Z,98477.10
2018-05-07T03:34:17.742Z,98473.70
2018-05-07T03:36:43.971Z,98472.19
2018-05-07T03:39:10.254Z,98473.03
2018-05-07T03:41:36.554Z,98477.65
2018-05-07T03:44:02.838Z,98483.20
2018-05-07T03:46:29.103Z,98479.44
2018-05-07T03:48:55.326Z,98476.11
2018-05-07T03:51:21.607Z,98477.34
2018-05-07T03:53:47.835Z,98479.44
2018-05-07T03:56:14.099Z,98477.91
2018-05-07T03:58:40.329Z,98475.66
2018-05-07T04:01:06.582Z,98475.27
2018-05-07T04:03:32.810Z,98471.59
2018-05-07T04:05:59.079Z,98475.68
2018-05-07T04:08:25.320Z,98476.08
2018-05-07T04:10:52.666Z,98477.37
2018-05-07T04:13:18.921Z,98476.47
2018-05-07T04:15:45.246Z,98471.81
2018-05-07T04:21:14.246Z,98467.91
2018-05-07T04:23:52.722Z,98471.53
2018-05-07T04:26:18.945Z,98470.91
2018-05-07T04:28:45.220Z,98472.59
2018-05-07T04:31:11.446Z,98469.41
2018-05-07T04:33:37.694Z,98465.62
2018-05-07T04:36:03.994Z,98470.41
2018-05-07T04:38:30.218Z,98463.33
2018-05-07T04:40:56.482Z,98460.36
2018-05-07T04:43:22.710Z,98465.81
2018-05-07T04:45:48.946Z,98465.91
2018-05-07T04:48:15.169Z,98468.71
2018-05-07T04:50:41.500Z,98462.16
2018-05-07T04:53:07.654Z,98466.84
2018-05-07T04:55:33.882Z,98461.75
2018-05-07T04:58:00.126Z,98459.19
2018-05-07T05:00:26.410Z,98467.42
2018-05-07T05:02:52.634Z,98474.60
2018-05-07T05:05:18.874Z,98474.32
2018-05-07T05:07:45.098Z,98478.64
2018-05-07T05:10:11.327Z,98479.20
2018-05-07T05:12:37.583Z,98483.53
2018-05-07T05:15:03.813Z,98485.77
2018-05-07T05:17:30.036Z,98475.90
2018-05-07T05:19:56.274Z,98470.04
2018-05-07T05:22:22.526Z,98465.95
2018-05-07T05:24:48.774Z,98472.17
2018-05-07T05:27:15.073Z,98470.62
2018-05-07T05:29:41.247Z,98462.27
2018-05-07T05:32:07.468Z,98459.68
2018-05-07T05:34:33.715Z,98460.50
2018-05-07T05:36:59.978Z,98458.77
2018-05-07T05:39:26.202Z,98460.04
2018-05-07T05:41:52.443Z,98460.14
2018-05-07T05:44:18.658Z,98460.81
2018-05-07T05:46:44.935Z,98460.45
2018-05-07T05:49:11.217Z,98458.62
2018-05-07T05:51:37.421Z,98457.04
2018-05-07T05:54:03.646Z,98465.45
2018-05-07T05:56:29.991Z,98465.30
2018-05-07T05:58:56.137Z,98458.46
2018-05-07T06:01:22.358Z,98463.16
2018-05-07T06:03:48.674Z,98457.04
2018-05-07T06:06:14.884Z,98459.55
2018-05-07T06:08:41.126Z,98461.91
2018-05-07T06:11:07.346Z,98464.91
2018-05-07T06:13:33.583Z,98459.21
2018-05-07T06:15:59.797Z,98461.19
2018-05-07T06:18:26.038Z,98468.09
2018-05-07T06:20:52.269Z,98453.72
2018-05-07T06:23:18.491Z,98458.20
2018-05-07T06:25:44.734Z,98456.90
2018-05-07T06:28:10.947Z,98454.81
2018-05-07T06:30:37.198Z,98449.53
2018-05-07T06:33:03.426Z,98451.13
2018-05-07T06:35:29.671Z,98453.33
2018-05-07T06:37:55.886Z,98445.95
2018-05-07T06:40:22.114Z,98449.62
2018-05-07T06:42:48.370Z,98449.00
2018-05-07T06:45:14.662Z,98446.18
2018-05-07T06:47:41.011Z,98442.07
2018-05-07T06:50:07.322Z,98455.42
2018-05-07T06:52:33.563Z,98447.58
2018-05-07T06:54:59.773Z,98446.61
2018-05-07T06:57:26.005Z,98447.06
2018-05-07T06:59:52.225Z,98441.98
2018-05-07T07:02:18.474Z,98440.92
2018-05-07T07:04:44.730Z,98442.98
2018-05-07T07:07:10.938Z,98432.23
2018-05-07T07:09:37.213Z,98430.78
2018-05-07T07:12:03.447Z,98436.11
2018-05-07T07:14:29.694Z,98428.07
2018-05-07T07:16:55.914Z,98427.25
2018-05-07T07:19:22.197Z,98423.92
2018-05-07T07:21:48.445Z,98426.31
2018-05-07T07:24:14.654Z,98425.31
2018-05-07T07:26:40.897Z,98426.90
2018-05-07T07:29:07.147Z,98430.34
2018-05-07T07:31:33.401Z,98431.24
2018-05-07T07:33:59.647Z,98422.84
2018-05-07T07:36:25.906Z,98423.89
2018-05-07T07:38:52.134Z,98415.48
2018-05-07T07:41:18.406Z,98408.69
2018-05-07T07:43:44.632Z,98412.20
2018-05-07T07:46:10.863Z,98411.28
2018-05-07T07:48:37.137Z,98408.18
2018-05-07T07:51:03.362Z,98406.40
2018-05-07T07:53:29.703Z,98408.31
2018-05-07T07:55:55.869Z,98413.51
2018-05-07T07:58:22.121Z,98406.80
2018-05-07T08:00:48.366Z,98406.20
2018-05-07T08:03:14.626Z,98401.55
2018-05-07T08:05:40.842Z,98399.02
2018-05-07T08:08:07.071Z,98399.26
2018-05-07T08:10:33.311Z,98403.50
2018-05-07T08:12:59.517Z,98401.80
2018-05-07T08:15:25.774Z,98406.37
2018-05-07T08:17:51.986Z,98410.58
2018-05-07T08:20:18.226Z,98410.10
2018-05-07T08:22:44.450Z,98412.02
2018-05-07T08:25:10.697Z,98410.73
2018-05-07T08:27:36.919Z,98398.02
2018-05-07T08:30:03.179Z,98394.89
2018-05-07T08:32:29.410Z,98395.16
2018-05-07T08:34:55.699Z,98391.52
2018-05-07T08:37:21.934Z,98391.41
2018-05-07T08:39:48.254Z,98388.17
2018-05-07T08:42:14.598Z,98380.06
2018-05-07T08:44:40.751Z,98384.78
2018-05-07T08:47:06.998Z,98386.38
2018-05-07T08:49:33.214Z,98383.25
2018-05-07T08:51:59.442Z,98381.56
2018-05-07T08:54:25.675Z,98377.53
2018-05-07T08:56:51.890Z,98379.63
2018-05-07T08:59:18.166Z,98376.91
2018-05-07T09:01:44.386Z,98383.50
2018-05-07T09:04:10.655Z,98377.02
2018-05-07T09:06:36.878Z,98376.07
2018-05-07T09:09:03.206Z,98380.74
2018-05-07T09:11:29.422Z,98368.64
2018-05-07T09:13:55.629Z,98377.44
2018-05-07T09:16:21.870Z,98372.72
2018-05-07T09:18:48.097Z,98365.94
2018-05-07T09:21:14.353Z,98367.66
2018-05-07T09:23:40.578Z,98363.39
2018-05-07T09:26:06.817Z,98367.30
2018-05-07T09:28:33.043Z,98358.31
2018-05-07T09:30:59.299Z,98363.08
2018-05-07T09:33:25.518Z,98355.55
2018-05-07T09:35:51.744Z,98361.22
2018-05-07T09:38:18.011Z,98357.59
2018-05-07T09:40:44.230Z,98353.85
2018-05-07T09:43:10.516Z,98343.37
2018-05-07T09:45:36.726Z,98346.05
2018-05-07T09:48:03.021Z,98348.18
2018-05-07T09:50:30.261Z,98339.47
2018-05-07T09:52:56.526Z,98338.02
2018-05-07T09:55:22.745Z,98338.41
2018-05-07T09:58:02.190Z,98335.14
2018-05-07T10:00:34.418Z,98336.42
2018-05-07T10:03:00.647Z,98339.55
2018-05-07T10:05:26.949Z,98333.74
2018-05-07T10:07:53.181Z,98335.89
2018-05-07T10:10:19.433Z,98329.92
2018-05-07T10:12:45.659Z,98328.65
2018-05-07T10:15:11.894Z,98323.55
2018-05-07T10:17:38.106Z,98315.77
2018-05-07T10:20:04.354Z,98323.84
2018-05-07T10:22:30.569Z,98320.38
2018-05-07T10:24:56.787Z,98316.67
2018-05-07T10:27:23.029Z,98312.70
2018-05-07T10:29:49.257Z,98313.80
2018-05-07T10:32:15.503Z,98317.98
2018-05-07T10:34:41.722Z,98317.63
2018-05-07T10:37:07.962Z,98313.94
2018-05-07T10:39:34.173Z,98312.40
2018-05-07T10:42:00.413Z,98310.50
2018-05-07T10:44:26.630Z,98308.97
2018-05-07T10:46:52.847Z,98303.39
2018-05-07T10:49:19.081Z,98309.14
2018-05-07T10:51:45.297Z,98297.00
2018-05-07T10:54:11.563Z,98298.09
2018-05-07T10:56:37.775Z,98298.22
2018-05-07T10:59:04.036Z,98292.27
2018-05-07T11:01:30.297Z,98286.87
2018-05-07T11:03:56.532Z,98284.60
2018-05-07T11:06:22.753Z,98292.34
2018-05-07T11:08:48.966Z,98278.44
2018-05-07T11:11:15.206Z,98275.23
2018-05-07T11:13:41.419Z,98276.06
2018-05-07T11:16:07.680Z,98270.00
2018-05-07T11:18:33.909Z,98264.30
2018-05-07T11:21:00.159Z,98265.72
2018-05-07T11:23:26.358Z,98267.14
2018-05-07T11:25:52.649Z,98258.69
2018-05-07T11:28:18.871Z,98263.81
2018-05-07T11:30:45.096Z,98258.11
2018-05-07T11:33:11.333Z,98258.72
2018-05-07T11:35:37.554Z,98255.25
2018-05-07T11:38:03.789Z,98258.09
2018-05-07T11:40:30.002Z,98243.74
2018-05-07T11:42:56.237Z,98247.06
2018-05-07T11:45:22.454Z,98246.31
2018-05-07T11:47:48.708Z,98242.88
2018-05-07T11:50:14.950Z,98237.14
2018-05-07T11:52:41.177Z,98232.26
2018-05-07T11:55:07.418Z,98240.96
2018-05-07T11:57:33.638Z,98237.09
2018-05-07T11:59:59.886Z,98236.03
2018-05-07T12:02:26.203Z,98229.31
2018-05-07T12:04:52.378Z,98226.59
2018-05-07T12:07:18.606Z,98227.14
2018-05-07T12:09:44.854Z,98221.34
2018-05-07T12:12:11.078Z,98217.27
2018-05-07T12:14:37.293Z,98219.14
2018-05-07T12:17:03.572Z,98208.41
2018-05-07T12:19:29.794Z,98207.38
2018-05-07T12:21:56.058Z,98209.00
2018-05-07T12:24:22.322Z,98204.33
2018-05-07T12:26:48.586Z,98205.78
2018-05-07T12:29:14.820Z,98208.66
2018-05-07T12:31:41.167Z,98195.70
2018-05-07T12:34:07.324Z,98188.80
2018-05-07T12:36:33.537Z,98189.91
2018-05-07T12:38:59.790Z,98186.55
2018-05-07T12:41:26.999Z,98183.84
2018-05-07T12:43:53.241Z,98182.45
2018-05-07T12:46:19.485Z,98177.59
2018-05-07T12:48:45.761Z,98171.81
2018-05-07T12:51:11.982Z,98167.32
2018-05-07T12:53:38.242Z,98166.75
2018-05-07T12:56:04.487Z,98167.66
2018-05-07T12:58:30.722Z,98163.08
2018-05-07T13:00:56.982Z,98162.86
2018-05-07T13:03:23.194Z,98162.36
2018-05-07T13:05:49.484Z,98155.97
2018-05-07T13:08:15.737Z,98153.05
2018-05-07T13:10:42.006Z,98154.66
2018-05-07T13:13:08.295Z,98149.06
2018-05-07T13:15:34.502Z,98146.12
2018-05-07T13:18:00.743Z,98147.02
2018-05-07T13:20:26.963Z,98135.35
2018-05-07T13:22:53.203Z,98132.70
2018-05-07T13:25:19.427Z,98134.12
2018-05-07T13:27:45.675Z,98128.33
2018-05-07T13:30:11.902Z,98128.36
2018-05-07T13:32:38.150Z,98127.11
2018-05-07T13:35:04.382Z,98126.28
2018-05-07T13:37:30.606Z,98119.43
2018-05-07T13:39:56.843Z,98117.05
2018-05-07T13:42:23.067Z,98107.70
2018-05-07T13:44:49.302Z,98114.66
2018-05-07T13:47:15.546Z,98110.66
2018-05-07T13:49:41.785Z,98110.73
2018-05-07T13:52:08.001Z,98103.61
2018-05-07T13:54:34.244Z,98098.52
2018-05-07T13:57:00.453Z,98102.95
2018-05-07T13:59:26.678Z,98103.36
2018-05-07T14:01:52.920Z,98090.27
2018-05-07T14:04:19.134Z,98091.00
2018-05-07T14:06:45.377Z,98093.39
2018-05-07T14:09:11.605Z,98099.45
2018-05-07T14:11:37.855Z,98095.14
2018-05-07T14:14:04.082Z,98087.75
2018-05-07T14:16:30.339Z,98096.26
2018-05-07T14:18:56.563Z,98090.22
2018-05-07T14:21:22.785Z,98092.38
2018-05-07T14:23:49.046Z,98084.29
2018-05-07T14:26:15.282Z,98083.66
2018-05-07T14:28:41.542Z,98075.98
2018-05-07T14:31:07.790Z,98078.34
2018-05-07T14:33:34.094Z,98077.22
2018-05-07T14:36:00.319Z,98069.52
2018-05-07T14:38:26.557Z,98064.33
2018-05-07T14:40:52.791Z,98069.55
2018-05-07T14:43:19.018Z,98061.22
2018-05-07T14:45:45.285Z,98062.12
2018-05-07T14:48:11.494Z,98058.50
2018-05-07T14:50:37.743Z,98061.38
2018-05-07T14:53:03.987Z,98067.83
2018-05-07T14:55:30.851Z,98056.92
2018-05-07T14:57:57.067Z,98062.67
2018-05-07T15:00:23.317Z,98052.71
2018-05-07T15:02:49.533Z,98058.97
2018-05-07T15:05:15.754Z,98049.64
2018-05-07T15:07:44.424Z,98052.06
2018-05-07T15:10:12.170Z,98053.59
2018-05-07T15:12:38.435Z,98050.05
2018-05-07T15:15:04.763Z,98050.14
2018-05-07T15:17:30.993Z,98054.39
2018-05-07T15:19:57.210Z,98051.68
2018-05-07T15:22:23.481Z,98056.80
2018-05-07T15:24:49.682Z,98042.12
2018-05-07T15:27:15.902Z,98044.52
2018-05-07T15:29:42.177Z,98050.91
2018-05-07T15:32:08.545Z,98043.56
2018-05-07T15:34:34.802Z,98052.14
2018-05-07T15:37:01.247Z,98044.90
2018-05-07T15:39:27.684Z,98047.89
2018-05-07T15:41:53.959Z,98044.88
2018-05-07T15:44:20.210Z,98036.81
2018-05-07T15:46:46.422Z,98036.20
2018-05-07T15:49:12.798Z,98043.70
2018-05-07T15:51:39.097Z,98039.47
2018-05-07T15:54:05.431Z,98040.35
2018-05-07T15:56:31.670Z,98040.66
2018-05-07T15:58:57.994Z,98033.57
2018-05-07T16:01:24.527Z,98044.78
2018-05-07T16:03:50.980Z,98040.22
2018-05-07T16:06:17.493Z,98034.13
2018-05-07T16:08:43.707Z,98036.36
2018-05-07T16:11:09.930Z,98029.02
2018-05-07T16:13:36.420Z,98026.80
2018-05-07T16:16:02.641Z,98027.41
2018-05-07T16:18:28.962Z,98027.45
2018-05-07T16:20:55.387Z,98022.72
2018-05-07T16:23:21.862Z,98022.32
2018-05-07T16:25:47.975Z,98020.50
2018-05-07T16:28:14.225Z,98014.44
2018-05-07T16:30:40.503Z,98010.69
2018-05-07T16:33:06.904Z,98010.71
2018-05-07T16:35:33.147Z,98004.87
2018-05-07T16:37:59.419Z,98004.80
2018-05-07T16:40:25.746Z,97998.02
2018-05-07T16:42:52.155Z,98007.78
2018-05-07T16:45:18.333Z,98005.25
2018-05-07T16:47:44.558Z,98008.11
2018-05-07T16:50:10.920Z,98006.37
2018-05-07T16:52:37.183Z,98001.63
2018-05-07T16:55:03.394Z,98002.20
2018-05-07T16:57:29.789Z,98005.90
2018-05-07T16:59:56.035Z,98003.73
2018-05-07T17:02:22.570Z,98000.24
2018-05-07T17:04:48.795Z,98003.83
2018-05-07T17:07:15.318Z,97997.62
2018-05-07T17:09:41.620Z,97996.49
2018-05-07T17:12:07.847Z,98001.03
2018-05-07T17:14:34.137Z,97999.33
2018-05-07T17:17:00.403Z,98003.30
2018-05-07T17:19:26.726Z,98004.97
2018-05-07T17:21:53.035Z,98003.52
2018-05-07T17:24:19.504Z,97997.50
2018-05-07T17:26:45.829Z,97999.86
2018-05-07T17:29:12.224Z,97996.23
2018-05-07T17:31:38.642Z,97993.78
2018-05-07T17:34:05.324Z,97999.70
2018-05-07T17:36:31.478Z,98003.58
2018-05-07T17:38:57.823Z,98002.72
2018-05-07T17:41:24.135Z,98004.41
2018-05-07T17:43:50.499Z,97999.96
2018-05-07T17:46:28.943Z,97996.82
2018-05-07T17:48:56.298Z,97995.69
2018-05-07T17:51:22.520Z,97994.03
2018-05-07T17:53:48.770Z,98000.96
2018-05-07T17:56:15.154Z,98001.89
2018-05-07T17:58:41.396Z,98001.84
2018-05-07T18:01:07.625Z,97995.59
2018-05-07T18:03:33.890Z,97998.97
2018-05-07T18:06:00.168Z,97994.30
2018-05-07T18:08:26.428Z,97994.89
2018-05-07T18:10:52.677Z,97994.52
2018-05-07T18:13:18.919Z,97998.31
2018-05-07T18:15:45.166Z,97998.80
2018-05-07T18:18:11.386Z,98001.06
2018-05-07T18:20:37.633Z,97998.02
2018-05-07T18:23:03.882Z,97996.97
2018-05-07T18:25:30.178Z,97996.74
2018-05-07T18:27:56.418Z,97992.33
2018-05-07T18:30:23.380Z,98001.22
2018-05-07T18:32:49.639Z,97997.66
2018-05-07T18:35:15.871Z,98000.30
2018-05-07T18:37:42.121Z,98002.33
2018-05-07T18:40:08.353Z,98000.66
2018-05-07T18:42:34.627Z,97997.94
2018-05-07T18:45:00.866Z,98000.84
2018-05-07T18:47:27.135Z,97999.95
2018-05-07T18:49:53.361Z,97997.15
2018-05-07T18:52:19.822Z,97998.88
2018-05-07T18:54:46.090Z,98006.53
2018-05-07T18:57:12.496Z,98005.44
2018-05-07T18:59:38.758Z,98000.56
2018-05-07T19:02:05.139Z,98003.58
2018-05-07T19:04:31.437Z,97998.86
2018-05-07T19:06:57.669Z,98002.78
2018-05-07T19:09:24.178Z,98003.09
2018-05-07T19:11:50.420Z,97998.77
2018-05-07T19:14:16.852Z,98004.14
2018-05-07T19:16:43.139Z,97997.98
2018-05-07T19:19:09.354Z,97994.92
2018-05-07T19:21:35.601Z,98004.30
2018-05-07T19:24:01.866Z,98012.69
2018-05-07T19:26:28.159Z,98003.34
2018-05-07T19:28:54.454Z,98005.12
2018-05-07T19:31:20.940Z,98005.74
2018-05-07T19:33:47.186Z,97999.56
2018-05-07T19:36:13.439Z,98000.24
2018-05-07T19:38:39.719Z,98004.82
2018-05-07T19:41:06.179Z,98003.63
2018-05-07T19:43:32.457Z,98005.32
2018-05-07T19:45:58.759Z,98007.28
2018-05-07T19:48:25.076Z,98005.05
2018-05-07T19:50:51.374Z,98003.06
2018-05-07T19:53:18.898Z,97998.20
2018-05-07T19:55:45.246Z,97993.04
2018-05-07T19:58:11.450Z,97997.08
2018-05-07T20:00:37.721Z,97994.59
2018-05-07T20:03:03.998Z,97994.81
2018-05-07T20:05:30.274Z,97997.18
2018-05-07T20:07:56.531Z,97995.69
2018-05-07T20:10:22.823Z,97997.41
2018-05-07T20:12:49.223Z,97996.84
2018-05-07T20:15:15.511Z,97995.51
2018-05-07T20:17:41.787Z,97989.32
2018-05-07T20:20:08.037Z,97989.75
2018-05-07T20:22:34.410Z,97989.66
2018-05-07T20:25:00.644Z,97991.52
2018-05-07T20:27:26.931Z,97988.42
2018-05-07T20:29:53.214Z,97984.70
2018-05-07T20:32:19.584Z,97991.87
2018-05-07T20:34:45.854Z,97988.42
2018-05-07T20:37:12.099Z,97989.44
2018-05-07T20:39:38.387Z,97982.39
2018-05-07T20:42:04.671Z,97986.68
2018-05-07T20:44:31.007Z,97989.69
2018-05-07T20:46:57.250Z,97984.34
2018-05-07T20:49:23.505Z,97992.30
2018-05-07T20:51:49.748Z,97990.06
2018-05-07T20:54:15.977Z,97983.36
2018-05-07T20:56:42.225Z,97989.05
2018-05-07T20:59:08.446Z,97984.66
2018-05-07T21:01:34.762Z,97983.02
2018-05-07T21:04:00.997Z,97987.41
2018-05-07T21:06:27.259Z,97991.56
2018-05-07T21:08:53.504Z,97986.46
2018-05-07T21:11:19.737Z,97984.14
2018-05-07T21:13:46.010Z,97983.56
2018-05-07T21:16:12.226Z,97983.18
2018-05-07T21:18:38.486Z,97982.30
2018-05-07T21:21:04.701Z,97981.91
2018-05-07T21:23:30.953Z,97980.32
2018-05-07T21:25:57.261Z,97973.94
2018-05-07T21:28:23.571Z,97974.83
2018-05-07T21:30:49.823Z,97973.80
2018-05-07T21:33:16.063Z,97970.75
2018-05-07T21:35:42.355Z,97972.98
2018-05-07T21:38:08.594Z,97966.48
2018-05-07T21:40:34.813Z,97973.13
2018-05-07T21:43:01.054Z,97973.67
2018-05-07T21:45:27.340Z,97972.21
2018-05-07T21:47:53.590Z,97974.82
2018-05-07T21:50:19.810Z,97975.03
2018-05-07T21:52:46.062Z,97984.41
2018-05-07T21:55:12.286Z,97977.70
2018-05-07T21:57:38.538Z,97982.74
2018-05-07T22:00:04.804Z,97981.73
2018-05-07T22:02:31.022Z,97980.97
2018-05-07T22:04:57.286Z,97975.09
2018-05-07T22:07:23.545Z,97983.00
2018-05-07T22:09:49.786Z,97990.64
2018-05-07T22:12:16.071Z,97985.34
2018-05-07T22:14:42.270Z,97980.87
2018-05-07T22:17:08.498Z,97979.11
2018-05-07T22:19:34.739Z,97968.06
2018-05-07T22:22:00.987Z,97966.94
2018-05-07T22:24:27.242Z,97967.49
2018-05-07T22:26:53.482Z,97968.82
2018-05-07T22:29:19.698Z,97967.09
2018-05-07T22:31:45.973Z,97963.70
2018-05-07T22:34:12.198Z,97968.30
2018-05-07T22:36:38.437Z,97965.55
2018-05-07T22:39:04.708Z,97974.16
2018-05-07T22:41:30.966Z,97967.14
2018-05-07T22:43:57.187Z,97977.94
2018-05-07T22:46:23.446Z,97979.33
2018-05-07T22:48:49.674Z,97971.74
2018-05-07T22:51:15.966Z,97969.83
2018-05-07T22:53:42.226Z,97967.47
2018-05-07T22:56:08.446Z,97962.25
2018-05-07T22:58:34.703Z,97964.50
2018-05-07T23:01:00.959Z,97965.55
2018-05-07T23:03:27.206Z,97957.92
2018-05-07T23:05:53.440Z,97953.58
2018-05-07T23:08:19.723Z,97961.88
2018-05-07T23:10:45.947Z,97955.50
2018-05-07T23:13:12.161Z,97960.08
2018-05-07T23:15:38.398Z,97955.75
2018-05-07T23:18:04.630Z,97951.41
2018-05-07T23:20:30.911Z,97956.69
2018-05-07T23:22:57.129Z,97950.32
2018-05-07T23:25:23.394Z,97958.48
2018-05-07T23:27:49.609Z,97957.25
2018-05-07T23:30:15.891Z,97950.28
2018-05-07T23:32:42.119Z,97951.23
2018-05-07T23:35:08.338Z,97943.88
2018-05-07T23:37:34.582Z,97948.27
2018-05-07T23:40:00.798Z,97942.36
2018-05-07T23:42:27.108Z,97943.17
2018-05-07T23:44:53.334Z,97939.81
2018-05-07T23:47:19.577Z,97946.00
2018-05-07T23:49:45.790Z,97936.07
2018-05-07T23:52:12.006Z,97935.82
2018-05-07T23:54:38.246Z,97934.95
2018-05-07T23:57:04.462Z,97940.22
2018-05-07T23:59:30.694Z,97936.30
